Time;durP1;ratioP1;P1;durP2;ratioP2;P2;SDS_P1;SDS_P2;PMS_P1;PMS_P2;Temp;Humidity;BMP_temperature;BMP_pressure;BME280_temperature;BME280_humidity;BME280_pressure;Samples;Min_cycle;Max_cycle;Signal;HPM_P1;HPM_P2
2023/03/20 00:01:29;;;;;;;;;;;20.50;42.30;;;;;;1540341;77;756;-60
2023/03/20 00:03:31;;;;;;;;;;;20.50;42.30;;;;;;1531379;77;1947;-60
2023/03/20 00:05:33;;;;;;;;;;;20.50;42.30;;;;;;1539739;77;759;-61
2023/03/20 00:07:36;;;;;;;;;;;20.50;42.30;;;;;;1547063;77;793;-61
2023/03/20 00:09:38;;;;;;;;;;;20.50;42.30;;;;;;1545756;77;702;-62
2023/03/20 00:11:42;;;;;;;;;;;20.50;42.30;;;;;;1546153;77;1153;-60
2023/03/20 00:13:44;;;;;;;;;;;20.50;42.30;;;;;;1540309;77;1821;-60
2023/03/20 00:15:45;;;;;;;;;;;20.50;42.30;;;;;;1545819;77;737;-60
2023/03/20 00:17:47;;;;;;;;;;;20.50;42.30;;;;;;1534663;77;1616;-62
2023/03/20 00:19:50;;;;;;;;;;;20.50;42.30;;;;;;1543600;77;681;-60
2023/03/20 00:21:52;;;;;;;;;;;20.50;42.30;;;;;;1533989;77;1145;-61
2023/03/20 00:23:54;;;;;;;;;;;20.50;42.30;;;;;;1547028;77;1952;-61
2023/03/20 00:25:56;;;;;;;;;;;20.50;42.30;;;;;;1548315;77;765;-61
2023/03/20 00:27:58;;;;;;;;;;;20.50;42.30;;;;;;1548736;77;821;-60
2023/03/20 00:30:00;;;;;;;;;;;20.50;42.30;;;;;;1546917;77;716;-61
2023/03/20 00:32:01;;;;;;;;;;;20.40;42.30;;;;;;1538509;77;1573;-60
2023/03/20 00:34:05;;;;;;;;;;;20.50;42.30;;;;;;1541459;77;739;-60
2023/03/20 00:36:08;;;;;;;;;;;20.50;42.40;;;;;;1539951;77;746;-61
2023/03/20 00:38:09;;;;;;;;;;;20.50;42.40;;;;;;1545263;77;762;-60
2023/03/20 00:40:12;;;;;;;;;;;20.50;42.40;;;;;;1543847;77;771;-61
2023/03/20 00:42:15;;;;;;;;;;;20.50;42.40;;;;;;1526477;77;1937;-61
2023/03/20 00:44:19;;;;;;;;;;;20.40;42.30;;;;;;1540180;77;1629;-62
2023/03/20 00:46:21;;;;;;;;;;;20.40;42.30;;;;;;1546392;77;1649;-61
2023/03/20 00:48:22;;;;;;;;;;;20.50;42.40;;;;;;1530621;77;776;-61
2023/03/20 00:50:25;;;;;;;;;;;20.40;42.30;;;;;;1543336;77;660;-60
2023/03/20 00:52:27;;;;;;;;;;;20.40;42.50;;;;;;1541251;77;1092;-61
2023/03/20 00:54:29;;;;;;;;;;;20.40;42.40;;;;;;1541824;77;646;-60
2023/03/20 00:56:32;;;;;;;;;;;20.40;42.40;;;;;;1542133;77;699;-60
2023/03/20 00:58:35;;;;;;;;;;;20.50;42.50;;;;;;1542070;77;1596;-60
2023/03/20 01:00:38;;;;;;;;;;;20.40;42.50;;;;;;1539186;77;753;-60
2023/03/20 01:02:40;;;;;;;;;;;20.50;42.60;;;;;;1538987;77;1952;-60
2023/03/20 01:04:42;;;;;;;;;;;20.40;42.40;;;;;;1533616;77;720;-61
2023/03/20 01:06:44;;;;;;;;;;;20.40;42.50;;;;;;1546418;77;819;-61
2023/03/20 01:08:47;;;;;;;;;;;20.40;42.50;;;;;;1546963;77;718;-61
2023/03/20 01:10:50;;;;;;;;;;;20.40;42.50;;;;;;1543694;77;678;-61
2023/03/20 01:12:52;;;;;;;;;;;20.40;42.50;;;;;;1543535;77;1582;-61
2023/03/20 01:14:55;;;;;;;;;;;20.40;42.60;;;;;;1534193;77;807;-61
2023/03/20 01:16:56;;;;;;;;;;;20.40;42.50;;;;;;1538725;77;728;-62
2023/03/20 01:18:58;;;;;;;;;;;20.40;42.60;;;;;;1537740;77;743;-62
2023/03/20 01:21:00;;;;;;;;;;;20.40;42.60;;;;;;1533800;77;784;-61
2023/03/20 01:23:02;;;;;;;;;;;20.40;42.50;;;;;;1537000;77;1965;-61
2023/03/20 01:25:04;;;;;;;;;;;20.40;42.50;;;;;;1542831;77;768;-62
2023/03/20 01:27:11;;;;;;;;;;;20.40;42.50;;;;;;1538608;77;1585;-62
2023/03/20 01:29:20;;;;;;;;;;;20.40;42.50;;;;;;1542604;77;1776;-60
2023/03/20 01:31:22;;;;;;;;;;;20.40;42.60;;;;;;1543185;77;750;-61
2023/03/20 01:33:26;;;;;;;;;;;20.40;42.60;;;;;;1534534;77;1176;-62
2023/03/20 01:35:27;;;;;;;;;;;20.40;42.60;;;;;;1532911;77;1780;-61
2023/03/20 01:37:29;;;;;;;;;;;20.30;42.60;;;;;;1534405;77;815;-60
2023/03/20 01:39:32;;;;;;;;;;;20.40;42.60;;;;;;1535398;77;690;-60
2023/03/20 01:41:34;;;;;;;;;;;20.40;42.60;;;;;;1531075;77;1563;-60
2023/03/20 01:43:36;;;;;;;;;;;20.30;42.60;;;;;;1535483;77;1941;-61
2023/03/20 01:45:38;;;;;;;;;;;20.40;42.60;;;;;;1546538;77;718;-62
2023/03/20 01:47:40;;;;;;;;;;;20.30;42.60;;;;;;1547966;77;680;-61
2023/03/20 01:50:00;;;;;;;;;;;20.40;42.60;;;;;;1544012;77;785;-61
2023/03/20 01:52:02;;;;;;;;;;;20.40;42.50;;;;;;1535315;77;1130;-60
2023/03/20 01:54:08;;;;;;;;;;;20.40;42.60;;;;;;1539240;77;747;-61
2023/03/20 01:56:10;;;;;;;;;;;20.40;42.60;;;;;;1541124;77;1850;-62
2023/03/20 01:58:19;;;;;;;;;;;20.40;42.60;;;;;;1547137;77;809;-60
2023/03/20 02:00:22;;;;;;;;;;;20.40;42.60;;;;;;1548584;77;803;-61
2023/03/20 02:02:25;;;;;;;;;;;20.40;42.60;;;;;;1548731;77;1147;-62
2023/03/20 02:04:29;;;;;;;;;;;20.30;42.60;;;;;;1548403;77;1923;-62
2023/03/20 02:06:32;;;;;;;;;;;20.30;42.60;;;;;;1534073;77;944;-60
2023/03/20 02:08:35;;;;;;;;;;;20.40;42.60;;;;;;1542930;77;691;-60
2023/03/20 02:10:37;;;;;;;;;;;20.40;42.60;;;;;;1534307;77;2610;-61
2023/03/20 02:12:40;;;;;;;;;;;20.30;42.60;;;;;;1544776;77;1126;-60
2023/03/20 02:14:42;;;;;;;;;;;20.40;42.60;;;;;;1529551;77;696;-61
2023/03/20 02:16:44;;;;;;;;;;;20.40;42.60;;;;;;1548006;77;744;-60
2023/03/20 02:18:47;;;;;;;;;;;20.40;42.50;;;;;;1537421;77;720;-61
2023/03/20 02:21:08;;;;;;;;;;;20.40;42.60;;;;;;1536253;77;721;-61
2023/03/20 02:23:29;;;;;;;;;;;20.40;42.60;;;;;;1532270;77;1913;-62
2023/03/20 02:25:50;;;;;;;;;;;20.40;42.60;;;;;;1540405;77;1511;-62
2023/03/20 02:27:53;;;;;;;;;;;20.30;42.60;;;;;;1528511;77;694;-61
2023/03/20 02:30:00;;;;;;;;;;;20.30;42.60;;;;;;1537792;77;1926;-60
2023/03/20 02:32:03;;;;;;;;;;;20.30;42.70;;;;;;1535034;77;1144;-60
2023/03/20 02:34:10;;;;;;;;;;;20.30;42.60;;;;;;1539020;77;660;-62
2023/03/20 02:36:13;;;;;;;;;;;20.30;42.60;;;;;;1538791;77;959;-62
2023/03/20 02:38:20;;;;;;;;;;;20.30;42.60;;;;;;1542765;77;1561;-60
2023/03/20 02:40:42;;;;;;;;;;;20.30;42.60;;;;;;1540123;77;802;-60
2023/03/20 02:43:04;;;;;;;;;;;20.30;42.60;;;;;;1545121;77;1153;-62
2023/03/20 02:45:17;;;;;;;;;;;20.40;42.60;;;;;;1542387;77;2133;-61
2023/03/20 02:47:22;;;;;;;;;;;20.30;42.60;;;;;;1471953;79;1063;-60
2023/03/20 02:49:37;;;;;;;;;;;20.40;42.60;;;;;;1526959;77;947;-61
2023/03/20 02:51:56;;;;;;;;;;;20.30;42.60;;;;;;1548519;77;1504;-60
2023/03/20 02:54:00;;;;;;;;;;;20.30;42.60;;;;;;1530645;77;747;-61
2023/03/20 02:56:16;;;;;;;;;;;20.30;42.60;;;;;;1539353;75;1927;-61
2023/03/20 02:58:22;;;;;;;;;;;20.30;42.60;;;;;;1537336;77;684;-61
2023/03/20 03:00:29;;;;;;;;;;;20.40;42.60;;;;;;1532887;77;1790;-61
2023/03/20 03:02:35;;;;;;;;;;;20.40;42.60;;;;;;1539739;77;1188;-60
2023/03/20 03:04:38;;;;;;;;;;;20.30;42.60;;;;;;1542755;77;1939;-60
2023/03/20 03:06:42;;;;;;;;;;;20.30;42.60;;;;;;1533122;77;1824;-61
2023/03/20 03:08:44;;;;;;;;;;;20.30;42.70;;;;;;1540792;77;693;-62
2023/03/20 03:10:51;;;;;;;;;;;20.40;42.60;;;;;;1548587;77;694;-60
2023/03/20 03:12:53;;;;;;;;;;;20.30;42.60;;;;;;1540456;77;1139;-60
2023/03/20 03:14:56;;;;;;;;;;;20.40;42.60;;;;;;1543641;77;777;-61
2023/03/20 03:16:58;;;;;;;;;;;20.30;42.60;;;;;;1525332;77;782;-60
2023/03/20 03:19:05;;;;;;;;;;;20.30;42.60;;;;;;1538336;77;771;-60
2023/03/20 03:21:07;;;;;;;;;;;20.30;42.60;;;;;;1538787;77;1468;-62
2023/03/20 03:23:10;;;;;;;;;;;20.30;42.60;;;;;;1531127;77;1915;-62
2023/03/20 03:25:12;;;;;;;;;;;20.40;42.60;;;;;;1519105;77;757;-61
2023/03/20 03:27:25;;;;;;;;;;;20.30;42.60;;;;;;1546096;77;684;-60
2023/03/20 03:29:29;;;;;;;;;;;20.30;42.60;;;;;;1537064;77;1121;-60
2023/03/20 03:31:31;;;;;;;;;;;20.30;42.60;;;;;;1537744;77;1942;-61
2023/03/20 03:33:34;;;;;;;;;;;20.30;42.60;;;;;;1533869;77;2444;-63
2023/03/20 03:35:36;;;;;;;;;;;20.30;42.60;;;;;;1523904;77;694;-61
2023/03/20 03:37:56;;;;;;;;;;;20.30;42.60;;;;;;1543914;77;806;-61
2023/03/20 03:40:00;;;;;;;;;;;20.30;42.60;;;;;;1531392;77;723;-59
2023/03/20 03:42:06;;;;;;;;;;;20.30;42.60;;;;;;1536223;77;1783;-58
2023/03/20 03:44:16;;;;;;;;;;;20.30;42.60;;;;;;1547106;77;1923;-59
2023/03/20 03:46:32;;;;;;;;;;;20.30;42.60;;;;;;1548598;77;786;-58
2023/03/20 03:48:33;;;;;;;;;;;20.40;42.60;;;;;;1511935;78;1588;-59
2023/03/20 03:50:40;;;;;;;;;;;20.30;42.70;;;;;;1531660;77;920;-58
2023/03/20 03:52:42;;;;;;;;;;;20.30;42.70;;;;;;1546402;77;1157;-60
2023/03/20 03:54:45;;;;;;;;;;;20.30;42.70;;;;;;1536002;77;787;-60
2023/03/20 03:56:46;;;;;;;;;;;20.30;42.80;;;;;;1540871;77;726;-59
2023/03/20 03:58:49;;;;;;;;;;;20.30;42.70;;;;;;1542321;77;718;-59
2023/03/20 04:00:51;;;;;;;;;;;20.30;42.70;;;;;;1532114;77;760;-59
2023/03/20 04:02:54;;;;;;;;;;;20.30;42.70;;;;;;1532228;77;1509;-58
2023/03/20 04:04:56;;;;;;;;;;;20.40;42.70;;;;;;1536710;77;1887;-59
2023/03/20 04:06:58;;;;;;;;;;;20.30;42.60;;;;;;1530689;77;695;-59
2023/03/20 04:09:00;;;;;;;;;;;20.30;42.70;;;;;;1536001;77;689;-59
2023/03/20 04:11:02;;;;;;;;;;;20.30;42.60;;;;;;1544155;77;935;-59
2023/03/20 04:13:04;;;;;;;;;;;20.30;42.70;;;;;;1531730;77;1117;-59
2023/03/20 04:15:06;;;;;;;;;;;20.30;42.60;;;;;;1532511;77;824;-59
2023/03/20 04:17:08;;;;;;;;;;;20.30;42.70;;;;;;1544485;77;1742;-58
2023/03/20 04:19:10;;;;;;;;;;;20.30;42.70;;;;;;1532202;77;715;-58
2023/03/20 04:21:12;;;;;;;;;;;20.30;42.60;;;;;;1528964;77;608;-59
2023/03/20 04:23:14;;;;;;;;;;;20.30;42.60;;;;;;1542393;77;1153;-58
2023/03/20 04:25:18;;;;;;;;;;;20.30;42.60;;;;;;1526700;77;1898;-58
2023/03/20 04:27:20;;;;;;;;;;;20.30;42.60;;;;;;1531239;77;1047;-59
2023/03/20 04:29:22;;;;;;;;;;;20.30;42.70;;;;;;1527732;77;700;-59
2023/03/20 04:31:24;;;;;;;;;;;20.30;42.60;;;;;;1532083;77;1689;-58
2023/03/20 04:33:26;;;;;;;;;;;20.30;42.70;;;;;;1541457;77;1189;-58
2023/03/20 04:35:28;;;;;;;;;;;20.40;42.70;;;;;;1547696;77;747;-57
2023/03/20 04:37:30;;;;;;;;;;;20.30;42.60;;;;;;1536888;77;806;-58
2023/03/20 04:39:31;;;;;;;;;;;20.30;42.60;;;;;;1539819;77;666;-59
2023/03/20 04:41:33;;;;;;;;;;;20.30;42.60;;;;;;1547962;77;700;-60
2023/03/20 04:43:35;;;;;;;;;;;20.40;42.60;;;;;;1531754;77;1929;-60
2023/03/20 04:45:37;;;;;;;;;;;20.30;42.60;;;;;;1537756;77;987;-59
2023/03/20 04:47:39;;;;;;;;;;;20.30;42.70;;;;;;1545380;77;730;-59
2023/03/20 04:49:41;;;;;;;;;;;20.30;42.70;;;;;;1546657;77;677;-60
2023/03/20 04:51:43;;;;;;;;;;;20.20;42.50;;;;;;1548506;77;1154;-58
2023/03/20 04:53:46;;;;;;;;;;;20.30;42.60;;;;;;1530224;77;711;-58
2023/03/20 04:55:49;;;;;;;;;;;20.30;42.70;;;;;;1539884;77;713;-60
2023/03/20 04:57:51;;;;;;;;;;;20.30;42.70;;;;;;1545318;77;1574;-58
2023/03/20 04:59:53;;;;;;;;;;;20.30;42.70;;;;;;1541314;77;798;-58
2023/03/20 05:01:56;;;;;;;;;;;20.40;42.70;;;;;;1544220;77;1138;-59
2023/03/20 05:03:59;;;;;;;;;;;20.20;42.50;;;;;;1545412;77;1905;-59
2023/03/20 05:06:01;;;;;;;;;;;20.20;42.50;;;;;;1545994;77;800;-59
2023/03/20 05:08:04;;;;;;;;;;;20.30;42.70;;;;;;1548638;77;723;-59
2023/03/20 05:10:06;;;;;;;;;;;20.30;42.80;;;;;;1546792;77;665;-60
2023/03/20 05:12:08;;;;;;;;;;;20.30;42.70;;;;;;1530222;77;1532;-58
2023/03/20 05:14:10;;;;;;;;;;;20.30;42.70;;;;;;1536880;77;725;-60
2023/03/20 05:16:12;;;;;;;;;;;20.30;42.60;;;;;;1545958;77;760;-59
2023/03/20 05:18:14;;;;;;;;;;;20.30;42.70;;;;;;1544032;77;727;-59
2023/03/20 05:20:16;;;;;;;;;;;20.30;42.70;;;;;;1538099;77;749;-59
2023/03/20 05:22:18;;;;;;;;;;;20.30;42.70;;;;;;1538947;77;1126;-60
2023/03/20 05:24:20;;;;;;;;;;;20.20;42.60;;;;;;1534252;77;1940;-60
2023/03/20 05:26:22;;;;;;;;;;;20.30;42.80;;;;;;1548209;77;1545;-59
2023/03/20 05:28:24;;;;;;;;;;;20.30;42.70;;;;;;1540955;77;699;-59
2023/03/20 05:30:26;;;;;;;;;;;20.30;42.70;;;;;;1535592;77;1132;-59
2023/03/20 05:32:27;;;;;;;;;;;20.30;42.80;;;;;;1534132;77;1256;-60
2023/03/20 05:34:29;;;;;;;;;;;20.20;42.60;;;;;;1532822;77;682;-60
2023/03/20 05:36:31;;;;;;;;;;;20.30;42.70;;;;;;1540438;77;707;-59
2023/03/20 05:38:33;;;;;;;;;;;20.30;42.80;;;;;;1534402;77;676;-59
2023/03/20 05:40:35;;;;;;;;;;;20.30;42.70;;;;;;1530471;77;1618;-60
2023/03/20 05:42:37;;;;;;;;;;;20.30;42.80;;;;;;1532166;77;1160;-59
2023/03/20 05:44:39;;;;;;;;;;;20.30;42.80;;;;;;1541365;77;1928;-59
2023/03/20 05:46:42;;;;;;;;;;;20.30;42.80;;;;;;1534194;77;731;-59
2023/03/20 05:48:44;;;;;;;;;;;20.30;42.80;;;;;;1535405;77;810;-60
2023/03/20 05:50:45;;;;;;;;;;;20.30;42.80;;;;;;1547460;77;797;-60
2023/03/20 05:52:47;;;;;;;;;;;20.20;42.60;;;;;;1543860;77;1122;-58
2023/03/20 05:54:49;;;;;;;;;;;20.30;42.80;;;;;;1537835;77;1353;-60
2023/03/20 05:56:51;;;;;;;;;;;20.30;42.80;;;;;;1534251;77;741;-60
2023/03/20 05:58:53;;;;;;;;;;;20.30;42.80;;;;;;1547323;77;761;-59
2023/03/20 06:00:56;;;;;;;;;;;20.30;42.80;;;;;;1535944;77;808;-60
2023/03/20 06:02:58;;;;;;;;;;;20.20;42.60;;;;;;1546301;77;1137;-60
2023/03/20 06:05:00;;;;;;;;;;;20.30;42.70;;;;;;1539618;77;1923;-59
2023/03/20 06:07:02;;;;;;;;;;;20.30;42.80;;;;;;1542523;77;675;-60
2023/03/20 06:09:04;;;;;;;;;;;20.30;42.70;;;;;;1538474;77;1544;-60
2023/03/20 06:11:06;;;;;;;;;;;20.30;42.80;;;;;;1541050;77;727;-60
2023/03/20 06:13:08;;;;;;;;;;;20.30;42.70;;;;;;1542531;77;1127;-60
2023/03/20 06:15:10;;;;;;;;;;;20.20;42.60;;;;;;1535247;77;782;-59
2023/03/20 06:17:12;;;;;;;;;;;20.30;42.80;;;;;;1548156;77;700;-59
2023/03/20 06:19:14;;;;;;;;;;;20.30;42.80;;;;;;1529842;77;694;-60
2023/03/20 06:21:16;;;;;;;;;;;20.30;42.80;;;;;;1541824;77;699;-60
2023/03/20 06:23:18;;;;;;;;;;;20.30;42.70;;;;;;1535352;77;1538;-59
2023/03/20 06:25:20;;;;;;;;;;;20.20;42.60;;;;;;1534780;77;1939;-60
2023/03/20 06:27:22;;;;;;;;;;;20.30;42.80;;;;;;1534082;77;774;-60
2023/03/20 06:29:24;;;;;;;;;;;20.30;42.80;;;;;;1524062;77;645;-60
2023/03/20 06:31:26;;;;;;;;;;;20.30;42.70;;;;;;1535931;77;810;-60
2023/03/20 06:33:27;;;;;;;;;;;20.20;42.60;;;;;;1534355;77;1193;-59
2023/03/20 06:35:30;;;;;;;;;;;20.30;42.70;;;;;;1547580;77;594;-58
2023/03/20 06:37:33;;;;;;;;;;;20.30;42.70;;;;;;1545242;77;1395;-60
2023/03/20 06:39:35;;;;;;;;;;;20.30;42.70;;;;;;1544215;77;688;-58
2023/03/20 06:41:38;;;;;;;;;;;20.30;42.70;;;;;;1547800;77;735;-60
2023/03/20 06:43:41;;;;;;;;;;;20.30;42.80;;;;;;1546167;77;1158;-59
2023/03/20 06:45:43;;;;;;;;;;;20.30;42.80;;;;;;1534878;77;1909;-60
2023/03/20 06:47:46;;;;;;;;;;;20.30;42.70;;;;;;1541695;77;721;-59
2023/03/20 06:49:48;;;;;;;;;;;20.30;42.80;;;;;;1535322;77;814;-61
2023/03/20 06:51:50;;;;;;;;;;;20.30;42.80;;;;;;1541309;77;1614;-59
2023/03/20 06:53:51;;;;;;;;;;;20.30;42.80;;;;;;1536767;77;565;-60
2023/03/20 06:55:54;;;;;;;;;;;20.30;42.70;;;;;;1547759;77;607;-60
2023/03/20 06:57:55;;;;;;;;;;;20.30;42.80;;;;;;1529398;77;720;-62
2023/03/20 06:59:57;;;;;;;;;;;20.30;42.70;;;;;;1543730;77;655;-59
2023/03/20 07:02:00;;;;;;;;;;;20.30;42.80;;;;;;1540791;77;1165;-59
2023/03/20 07:04:02;;;;;;;;;;;20.30;42.80;;;;;;1538643;77;810;-60
2023/03/20 07:06:05;;;;;;;;;;;20.40;42.80;;;;;;1536043;77;1929;-60
2023/03/20 07:08:07;;;;;;;;;;;20.40;42.80;;;;;;1547412;77;639;-60
2023/03/20 07:10:11;;;;;;;;;;;20.50;42.90;;;;;;1541262;77;743;-60
2023/03/20 07:12:18;;;;;;;;;;;20.40;42.80;;;;;;1542204;77;1102;-60
2023/03/20 07:14:16;;;;;;;;;;;20.40;42.80;;;;;;1542514;77;1588;-60
2023/03/20 07:16:18;;;;;;;;;;;20.40;42.80;;;;;;1546607;77;732;-59
2023/03/20 07:18:21;;;;;;;;;;;20.40;42.80;;;;;;1536888;77;1321;-60
2023/03/20 07:20:23;;;;;;;;;;;20.40;42.70;;;;;;1536103;77;796;-60
2023/03/20 07:22:25;;;;;;;;;;;20.40;42.70;;;;;;1525275;77;1127;-60
2023/03/20 07:24:27;;;;;;;;;;;20.40;42.70;;;;;;1536270;77;1913;-60
2023/03/20 07:26:29;;;;;;;;;;;20.40;42.70;;;;;;1539411;77;667;-59
2023/03/20 07:28:31;;;;;;;;;;;20.40;42.70;;;;;;1538374;77;671;-59
2023/03/20 07:30:33;;;;;;;;;;;20.30;42.70;;;;;;1548108;77;759;-60
2023/03/20 07:32:35;;;;;;;;;;;20.40;42.70;;;;;;1538296;77;1572;-60
2023/03/20 07:34:37;;;;;;;;;;;20.40;42.70;;;;;;1534170;77;737;-60
2023/03/20 07:36:40;;;;;;;;;;;20.40;42.70;;;;;;1545358;77;715;-59
2023/03/20 07:38:42;;;;;;;;;;;20.40;42.70;;;;;;1536318;77;709;-60
2023/03/20 07:40:44;;;;;;;;;;;20.50;42.80;;;;;;1540037;77;754;-59
2023/03/20 07:42:46;;;;;;;;;;;20.40;42.70;;;;;;1538027;77;1164;-59
2023/03/20 07:44:48;;;;;;;;;;;20.40;42.80;;;;;;1546368;77;1886;-59
2023/03/20 07:46:50;;;;;;;;;;;20.40;42.70;;;;;;1548645;77;1527;-60
2023/03/20 07:48:52;;;;;;;;;;;20.40;42.70;;;;;;1542514;77;852;-60
2023/03/20 07:50:54;;;;;;;;;;;20.40;42.70;;;;;;1532418;77;725;-59
2023/03/20 07:52:55;;;;;;;;;;;20.50;42.80;;;;;;1546962;77;1158;-59
2023/03/20 07:54:57;;;;;;;;;;;20.50;42.80;;;;;;1544466;77;755;-60
2023/03/20 07:57:00;;;;;;;;;;;20.50;42.80;;;;;;1547713;77;813;-60
2023/03/20 07:59:02;;;;;;;;;;;20.50;42.80;;;;;;1545489;77;642;-59
2023/03/20 08:01:04;;;;;;;;;;;20.50;42.70;;;;;;1544402;77;1411;-61
2023/03/20 08:03:05;;;;;;;;;;;20.50;42.70;;;;;;1529953;77;1147;-60
2023/03/20 08:05:08;;;;;;;;;;;20.50;42.70;;;;;;1535222;77;1932;-59
2023/03/20 08:07:10;;;;;;;;;;;20.40;42.60;;;;;;1537403;77;666;-59
2023/03/20 08:09:12;;;;;;;;;;;20.50;42.60;;;;;;1538877;77;658;-60
2023/03/20 08:11:14;;;;;;;;;;;20.50;42.60;;;;;;1541516;77;769;-60
2023/03/20 08:13:16;;;;;;;;;;;20.50;42.60;;;;;;1546666;77;1165;-59
2023/03/20 08:15:18;;;;;;;;;;;20.50;42.60;;;;;;1540084;77;1563;-60
2023/03/20 08:17:20;;;;;;;;;;;20.50;42.60;;;;;;1540101;77;665;-60
2023/03/20 08:19:22;;;;;;;;;;;20.60;42.60;;;;;;1537172;77;756;-60
2023/03/20 08:21:24;;;;;;;;;;;20.60;42.70;;;;;;1545248;77;804;-60
2023/03/20 08:23:26;;;;;;;;;;;20.50;42.60;;;;;;1547034;77;1129;-60
2023/03/20 08:25:32;;;;;;;;;;;20.60;42.60;;;;;;1529053;77;1925;-60
2023/03/20 08:27:32;;;;;;;;;;;20.60;42.60;;;;;;1531035;77;1796;-60
2023/03/20 08:29:34;;;;;;;;;;;20.60;42.60;;;;;;1541594;77;1568;-59
2023/03/20 08:31:36;;;;;;;;;;;20.60;42.60;;;;;;1541652;77;818;-61
2023/03/20 08:33:38;;;;;;;;;;;20.50;42.60;;;;;;1534272;77;1184;-59
2023/03/20 08:35:40;;;;;;;;;;;20.60;42.50;;;;;;1544920;77;713;-61
2023/03/20 08:37:42;;;;;;;;;;;20.60;42.50;;;;;;1545374;77;739;-59
2023/03/20 08:39:44;;;;;;;;;;;20.60;42.50;;;;;;1539099;77;715;-59
2023/03/20 08:41:45;;;;;;;;;;;20.60;42.50;;;;;;1540356;77;1167;-58
2023/03/20 08:43:47;;;;;;;;;;;20.10;42.30;;;;;;1534749;77;1557;-58
2023/03/20 08:45:49;;;;;;;;;;;20.70;42.60;;;;;;1536259;77;1934;-60
2023/03/20 08:47:51;;;;;;;;;;;20.70;42.60;;;;;;1547628;77;679;-61
2023/03/20 08:49:53;;;;;;;;;;;20.70;42.50;;;;;;1543503;77;680;-59
2023/03/20 08:51:55;;;;;;;;;;;20.70;42.60;;;;;;1545735;77;1161;-60
2023/03/20 08:53:57;;;;;;;;;;;20.70;42.60;;;;;;1547295;77;674;-59
2023/03/20 08:55:59;;;;;;;;;;;20.80;42.60;;;;;;1541965;77;662;-59
2023/03/20 08:58:01;;;;;;;;;;;20.80;42.60;;;;;;1539481;77;1460;-59
2023/03/20 09:00:03;;;;;;;;;;;20.80;42.60;;;;;;1543655;77;796;-59
2023/03/20 09:02:05;;;;;;;;;;;20.80;42.60;;;;;;1535947;77;1147;-59
2023/03/20 09:04:07;;;;;;;;;;;20.90;42.70;;;;;;1540518;77;818;-59
2023/03/20 09:06:09;;;;;;;;;;;20.80;42.50;;;;;;1547242;77;1935;-60
2023/03/20 09:08:12;;;;;;;;;;;20.90;42.60;;;;;;1539681;77;621;-61
2023/03/20 09:10:13;;;;;;;;;;;20.90;42.60;;;;;;1536601;77;930;-60
2023/03/20 09:12:15;;;;;;;;;;;20.90;42.60;;;;;;1538733;77;1329;-59
2023/03/20 09:14:17;;;;;;;;;;;20.90;42.40;;;;;;1540071;77;705;-59
2023/03/20 09:16:19;;;;;;;;;;;20.90;42.30;;;;;;1539356;77;768;-61
2023/03/20 09:18:21;;;;;;;;;;;20.80;42.10;;;;;;1533451;77;736;-59
2023/03/20 09:20:23;;;;;;;;;;;20.90;42.20;;;;;;1539423;77;772;-59
2023/03/20 09:22:25;;;;;;;;;;;20.90;42.30;;;;;;1533693;77;1115;-60
2023/03/20 09:24:28;;;;;;;;;;;20.90;42.10;;;;;;1537545;77;701;-59
2023/03/20 09:26:29;;;;;;;;;;;20.90;42.10;;;;;;1535088;77;1925;-60
2023/03/20 09:28:31;;;;;;;;;;;20.90;42.10;;;;;;1537390;77;742;-59
2023/03/20 09:30:33;;;;;;;;;;;20.80;41.90;;;;;;1530310;77;595;-59
2023/03/20 09:32:35;;;;;;;;;;;20.90;42.10;;;;;;1547231;77;1178;-59
2023/03/20 09:34:37;;;;;;;;;;;20.90;42.10;;;;;;1541147;77;579;-60
2023/03/20 09:36:39;;;;;;;;;;;20.90;42.10;;;;;;1531846;77;678;-61
2023/03/20 09:38:41;;;;;;;;;;;20.90;42.10;;;;;;1538300;77;699;-59
2023/03/20 09:40:51;;;;;;;;;;;20.90;42.10;;;;;;1534426;77;1182;-61
2023/03/20 09:43:10;;;;;;;;;;;20.80;41.90;;;;;;1536869;77;1196;-61
2023/03/20 09:45:14;;;;;;;;;;;20.90;42.10;;;;;;1536224;77;643;-59
2023/03/20 09:47:21;;;;;;;;;;;20.90;42.10;;;;;;1542184;77;696;-60
2023/03/20 09:49:24;;;;;;;;;;;20.90;42.10;;;;;;1544402;77;1983;-59
2023/03/20 09:51:27;;;;;;;;;;;20.80;42.00;;;;;;1530982;77;1649;-60
2023/03/20 09:53:40;;;;;;;;;;;20.90;42.20;;;;;;1548937;77;1523;-60
2023/03/20 09:55:42;;;;;;;;;;;20.90;42.20;;;;;;1538363;77;1048;-59
2023/03/20 09:57:45;;;;;;;;;;;20.90;42.10;;;;;;1544385;77;736;-60
2023/03/20 09:59:48;;;;;;;;;;;21.00;42.20;;;;;;1546559;77;693;-60
2023/03/20 10:01:54;;;;;;;;;;;21.00;42.10;;;;;;1549011;77;1164;-60
2023/03/20 10:03:56;;;;;;;;;;;20.90;42.10;;;;;;1539992;77;687;-60
2023/03/20 10:06:00;;;;;;;;;;;21.00;42.10;;;;;;1531996;77;1936;-60
2023/03/20 10:08:02;;;;;;;;;;;21.00;42.00;;;;;;1543416;77;1483;-59
2023/03/20 10:10:06;;;;;;;;;;;21.10;42.10;;;;;;1536998;77;703;-60
2023/03/20 10:12:10;;;;;;;;;;;21.00;41.90;;;;;;1534607;77;1086;-59
2023/03/20 10:14:20;;;;;;;;;;;21.10;42.00;;;;;;1536700;77;751;-60
2023/03/20 10:16:27;;;;;;;;;;;21.10;42.00;;;;;;1528706;77;647;-59
2023/03/20 10:18:29;;;;;;;;;;;21.10;41.90;;;;;;1540116;77;1951;-60
2023/03/20 10:20:35;;;;;;;;;;;21.10;41.90;;;;;;1541049;77;760;-59
2023/03/20 10:22:39;;;;;;;;;;;21.10;41.90;;;;;;1535403;77;1483;-60
2023/03/20 10:24:51;;;;;;;;;;;21.10;41.80;;;;;;1534730;77;1842;-60
2023/03/20 10:26:53;;;;;;;;;;;21.10;41.80;;;;;;1531783;77;1936;-59
2023/03/20 10:28:57;;;;;;;;;;;21.20;41.80;;;;;;1525540;77;783;-60
2023/03/20 10:31:01;;;;;;;;;;;21.10;41.70;;;;;;1534946;77;774;-59
2023/03/20 10:33:04;;;;;;;;;;;21.10;41.70;;;;;;1536507;77;1181;-61
2023/03/20 10:35:14;;;;;;;;;;;21.10;41.70;;;;;;1544914;77;712;-59
2023/03/20 10:37:17;;;;;;;;;;;21.20;41.70;;;;;;1547981;77;727;-61
2023/03/20 10:39:36;;;;;;;;;;;21.10;41.70;;;;;;1533340;77;719;-60
2023/03/20 10:41:38;;;;;;;;;;;21.10;41.60;;;;;;1537816;77;1615;-60
2023/03/20 10:43:40;;;;;;;;;;;21.10;41.60;;;;;;1544997;77;1158;-60
2023/03/20 10:45:44;;;;;;;;;;;21.10;41.50;;;;;;1547713;77;1927;-60
2023/03/20 10:47:47;;;;;;;;;;;21.20;41.60;;;;;;1534846;77;678;-59
2023/03/20 10:49:53;;;;;;;;;;;21.10;41.50;;;;;;1546625;77;1325;-60
2023/03/20 10:51:56;;;;;;;;;;;21.10;41.50;;;;;;1544941;77;1137;-60
2023/03/20 10:54:00;;;;;;;;;;;21.10;41.50;;;;;;1524702;77;775;-59
2023/03/20 10:56:03;;;;;;;;;;;21.10;41.50;;;;;;1547457;77;687;-59
2023/03/20 10:58:15;;;;;;;;;;;21.10;41.50;;;;;;1538233;77;768;-59
2023/03/20 11:00:19;;;;;;;;;;;21.10;41.50;;;;;;1542910;77;792;-60
2023/03/20 11:02:22;;;;;;;;;;;21.10;41.50;;;;;;1541181;77;1866;-60
2023/03/20 11:04:24;;;;;;;;;;;21.00;41.50;;;;;;1509243;77;1503;-59
2023/03/20 11:06:27;;;;;;;;;;;21.00;41.50;;;;;;1539787;77;1908;-60
2023/03/20 11:08:36;;;;;;;;;;;21.00;41.50;;;;;;1545017;77;683;-60
2023/03/20 11:10:38;;;;;;;;;;;21.00;41.50;;;;;;1538570;77;753;-60
2023/03/20 11:12:41;;;;;;;;;;;21.00;41.50;;;;;;1543417;77;1126;-60
2023/03/20 11:14:43;;;;;;;;;;;21.00;41.50;;;;;;1543108;77;785;-59
2023/03/20 11:16:49;;;;;;;;;;;21.00;41.50;;;;;;1544498;77;763;-61
2023/03/20 11:18:51;;;;;;;;;;;21.00;41.50;;;;;;1530286;77;1333;-60
2023/03/20 11:20:55;;;;;;;;;;;21.00;41.50;;;;;;1535607;77;715;-60
2023/03/20 11:22:58;;;;;;;;;;;21.00;41.60;;;;;;1534142;77;1378;-60
2023/03/20 11:25:03;;;;;;;;;;;21.00;41.60;;;;;;1533952;77;740;-60
2023/03/20 11:27:17;;;;;;;;;;;20.90;41.50;;;;;;1532865;77;1921;-60
2023/03/20 11:29:21;;;;;;;;;;;21.00;41.60;;;;;;1538170;77;703;-61
2023/03/20 11:31:30;;;;;;;;;;;21.00;41.60;;;;;;1540532;77;1926;-60
2023/03/20 11:33:34;;;;;;;;;;;21.00;41.60;;;;;;1521464;77;1100;-61
2023/03/20 11:35:36;;;;;;;;;;;20.90;41.70;;;;;;1532747;77;1822;-60
2023/03/20 11:37:39;;;;;;;;;;;20.90;41.60;;;;;;1531283;77;779;-60
2023/03/20 11:39:42;;;;;;;;;;;20.80;41.50;;;;;;1540644;77;1715;-60
2023/03/20 11:41:46;;;;;;;;;;;20.90;41.70;;;;;;1539314;75;1204;-60
2023/03/20 11:43:48;;;;;;;;;;;20.80;41.60;;;;;;1527710;77;709;-60
2023/03/20 11:45:50;;;;;;;;;;;20.90;41.70;;;;;;1525552;77;1617;-60
2023/03/20 11:47:53;;;;;;;;;;;20.90;41.80;;;;;;1516222;77;1918;-60
2023/03/20 11:49:56;;;;;;;;;;;20.90;41.80;;;;;;1529086;77;752;-62
2023/03/20 11:52:03;;;;;;;;;;;20.90;41.80;;;;;;1493649;77;1148;-60
2023/03/20 11:54:05;;;;;;;;;;;20.90;41.80;;;;;;1503370;78;1782;-61
2023/03/20 11:56:09;;;;;;;;;;;20.90;41.80;;;;;;1542412;77;802;-60
2023/03/20 11:58:13;;;;;;;;;;;20.90;41.80;;;;;;1537957;77;661;-60
2023/03/20 12:00:19;;;;;;;;;;;20.90;41.80;;;;;;1541882;77;1350;-61
2023/03/20 12:02:22;;;;;;;;;;;20.80;41.70;;;;;;1543003;77;1142;-60
2023/03/20 12:04:30;;;;;;;;;;;20.90;41.80;;;;;;1533558;77;700;-59
2023/03/20 12:06:46;;;;;;;;;;;20.80;41.80;;;;;;1541096;77;1915;-61
2023/03/20 12:08:49;;;;;;;;;;;20.80;41.80;;;;;;1539822;77;802;-60
2023/03/20 12:10:53;;;;;;;;;;;20.80;41.80;;;;;;1536455;77;1039;-61
2023/03/20 12:12:57;;;;;;;;;;;20.80;41.80;;;;;;1541865;77;1817;-60
2023/03/20 12:15:03;;;;;;;;;;;20.80;41.80;;;;;;1531721;77;1520;-60